createdAt,value
2023-10-23T00:05:00.661Z,97859.00
2023-10-23T00:10:22.904Z,97859.00
2023-10-23T00:15:44.627Z,97859.00
2023-10-23T00:21:30.665Z,97866.00
2023-10-23T00:27:21.212Z,97865.00
2023-10-23T00:33:02.738Z,97867.00
2023-10-23T00:38:41.933Z,97876.00
2023-10-23T00:44:10.228Z,97873.00
2023-10-23T00:49:33.690Z,97875.00
2023-10-23T00:54:55.885Z,97870.00
2023-10-23T01:00:17.839Z,97862.00
2023-10-23T01:06:05.275Z,97879.00
2023-10-23T01:11:29.276Z,97869.00
2023-10-23T01:17:08.095Z,97871.00
2023-10-23T01:22:54.895Z,97874.00
2023-10-23T01:28:42.210Z,97878.00
2023-10-23T01:34:19.356Z,97891.00
2023-10-23T01:39:41.035Z,97882.00
2023-10-23T01:45:02.614Z,97882.00
2023-10-23T01:50:25.463Z,97888.00
2023-10-23T01:55:46.792Z,97885.00
2023-10-23T02:01:24.834Z,97884.00
2023-10-23T02:06:57.627Z,97887.00
2023-10-23T02:12:32.267Z,97895.00
2023-10-23T02:18:09.377Z,97910.00
2023-10-23T02:23:56.319Z,97897.00
2023-10-23T02:29:25.207Z,97893.00
2023-10-23T02:34:49.388Z,97896.00
2023-10-23T02:40:11.561Z,97914.00
2023-10-23T02:45:35.272Z,97922.00
2023-10-23T02:51:25.735Z,97916.00
2023-10-23T02:56:55.186Z,97931.00
2023-10-23T03:02:23.175Z,97928.00
2023-10-23T03:07:53.617Z,97930.00
2023-10-23T03:13:30.136Z,97914.00
2023-10-23T03:19:05.951Z,97926.00
2023-10-23T03:24:28.263Z,97940.00
2023-10-23T03:29:49.947Z,97945.00
2023-10-23T03:35:11.594Z,97943.00
2023-10-23T03:40:33.402Z,97951.00
2023-10-23T03:52:16.494Z,97964.00
2023-10-23T03:58:05.166Z,97961.00
2023-10-23T04:03:46.302Z,97959.00
2023-10-23T04:09:19.518Z,97954.00
2023-10-23T04:14:41.464Z,97960.00
2023-10-23T04:20:03.067Z,97965.00
2023-10-23T04:25:24.731Z,97959.00
2023-10-23T04:30:46.270Z,97964.00
2023-10-23T04:36:34.508Z,97964.00
2023-10-23T04:42:20.796Z,97969.00
2023-10-23T04:47:52.341Z,97969.00
2023-10-23T04:53:29.285Z,97970.00
2023-10-23T04:58:59.081Z,97964.00
2023-10-23T05:04:40.062Z,97966.00
2023-10-23T05:10:09.016Z,97974.00
2023-10-23T05:15:33.879Z,97959.00
2023-10-23T05:21:03.980Z,97963.00
2023-10-23T05:26:31.253Z,97966.00
2023-10-23T05:32:19.932Z,97978.00
2023-10-23T05:37:58.528Z,97982.00
2023-10-23T05:43:35.524Z,97990.00
2023-10-23T05:49:06.428Z,98007.00
2023-10-23T05:54:28.907Z,97993.00
2023-10-23T05:59:50.311Z,97994.00
2023-10-23T06:05:28.101Z,97996.00
2023-10-23T06:11:24.136Z,98009.00
2023-10-23T06:17:22.496Z,98016.00
2023-10-23T06:23:05.040Z,98026.00
2023-10-23T06:28:31.570Z,98018.00
2023-10-23T06:34:04.359Z,98032.00
2023-10-23T06:39:28.018Z,98024.00
2023-10-23T06:44:50.363Z,98014.00
2023-10-23T06:50:14.905Z,98018.00
2023-10-23T06:55:36.571Z,98021.00
2023-10-23T07:00:58.261Z,98025.00
2023-10-23T07:06:48.026Z,98014.00
2023-10-23T07:12:11.045Z,98032.00
2023-10-23T07:17:58.813Z,98029.00
2023-10-23T07:23:28.614Z,98039.00
2023-10-23T07:28:58.548Z,98029.00
2023-10-23T07:34:24.488Z,98032.00
2023-10-23T07:39:49.262Z,98043.00
2023-10-23T07:45:11.199Z,98028.00
2023-10-23T07:50:36.526Z,98036.00
2023-10-23T08:02:09.774Z,98040.00
2023-10-23T08:07:36.230Z,98035.00
2023-10-23T08:13:07.502Z,98042.00
2023-10-23T08:18:53.502Z,98034.00
2023-10-23T08:24:19.312Z,98032.00
2023-10-23T08:29:41.194Z,98044.00
2023-10-23T08:35:04.258Z,98037.00
2023-10-23T08:40:26.182Z,98029.00
2023-10-23T08:46:02.000Z,98027.00
2023-10-23T08:51:30.389Z,98032.00
2023-10-23T08:57:23.120Z,98032.00
2023-10-23T09:03:06.755Z,98026.00
2023-10-23T09:08:33.456Z,98018.00
2023-10-23T09:14:13.519Z,98015.00
2023-10-23T09:19:41.464Z,98023.00
2023-10-23T09:25:03.600Z,98011.00
2023-10-23T09:30:30.212Z,98018.00
2023-10-23T09:36:12.906Z,98014.00
2023-10-23T09:42:01.374Z,98021.00
2023-10-23T09:47:50.350Z,98022.00
2023-10-23T09:53:33.727Z,98015.00
2023-10-23T09:59:08.637Z,98008.00
2023-10-23T10:05:03.968Z,98004.00
2023-10-23T10:10:47.089Z,98006.00
2023-10-23T10:16:35.495Z,97998.00
2023-10-23T10:22:30.525Z,97992.00
2023-10-23T10:28:15.924Z,97974.00
2023-10-23T10:34:27.634Z,97982.00
2023-10-23T10:39:45.272Z,97959.00
2023-10-23T10:45:19.567Z,97957.00
2023-10-23T10:50:42.457Z,97950.00
2023-10-23T10:56:31.182Z,97947.00
2023-10-23T11:02:14.401Z,97941.00
2023-10-23T11:07:41.248Z,97940.00
2023-10-23T11:13:27.906Z,97938.00
2023-10-23T11:18:49.911Z,97942.00
2023-10-23T11:24:17.365Z,97946.00
2023-10-23T11:29:45.101Z,97946.00
2023-10-23T11:35:08.109Z,97950.00
2023-10-23T11:40:33.586Z,97956.00
2023-10-23T11:46:13.453Z,97948.00
2023-10-23T11:57:58.709Z,97939.00
2023-10-23T12:03:43.889Z,97940.00
2023-10-23T12:09:08.373Z,97935.00
2023-10-23T12:14:32.071Z,97930.00
2023-10-23T12:19:54.253Z,97929.00
2023-10-23T12:25:17.621Z,97920.00
2023-10-23T12:30:39.442Z,97916.00
2023-10-23T12:42:19.692Z,97910.00
2023-10-23T12:48:03.907Z,97903.00
2023-10-23T12:53:30.215Z,97898.00
2023-10-23T12:59:03.429Z,97890.00
2023-10-23T13:04:49.519Z,97891.00
2023-10-23T13:10:34.420Z,97886.00
2023-10-23T13:16:05.933Z,97878.00
2023-10-23T13:21:37.607Z,97881.00
2023-10-23T13:27:18.823Z,97882.00
2023-10-23T13:32:59.033Z,97881.00
2023-10-23T13:38:33.440Z,97868.00
2023-10-23T13:44:00.766Z,97866.00
2023-10-23T13:49:23.004Z,97859.00
2023-10-23T13:54:46.384Z,97859.00
2023-10-23T14:00:11.053Z,97850.00
2023-10-23T14:05:38.432Z,97845.00
2023-10-23T14:17:16.645Z,97838.00
2023-10-23T14:23:01.650Z,97835.00
2023-10-23T14:28:29.374Z,97822.00
2023-10-23T14:33:59.154Z,97815.00
2023-10-23T14:39:27.305Z,97802.00
2023-10-23T14:44:49.290Z,97816.00
2023-10-23T14:50:10.864Z,97809.00
2023-10-23T14:55:32.463Z,97801.00
2023-10-23T15:00:54.131Z,97805.00
2023-10-23T15:06:34.050Z,97809.00
2023-10-23T15:12:23.413Z,97799.00
2023-10-23T15:18:03.602Z,97801.00
2023-10-23T15:23:42.724Z,97791.00
2023-10-23T15:29:15.192Z,97799.00
2023-10-23T15:34:37.106Z,97779.00
2023-10-23T15:39:58.741Z,97767.00
2023-10-23T15:45:20.310Z,97756.00
2023-10-23T15:50:42.005Z,97758.00
2023-10-23T15:56:30.851Z,97742.00
2023-10-23T16:02:09.066Z,97737.00
2023-10-23T16:07:45.495Z,97732.00
2023-10-23T16:13:42.110Z,97743.00
2023-10-23T16:19:29.594Z,97732.00
2023-10-23T16:24:51.861Z,97726.00
2023-10-23T16:30:13.949Z,97725.00
2023-10-23T16:35:36.590Z,97725.00
2023-10-23T16:41:27.814Z,97715.00
2023-10-23T16:47:12.467Z,97722.00
2023-10-23T16:52:58.156Z,97718.00
2023-10-23T16:58:36.021Z,97710.00
2023-10-23T17:04:26.882Z,97710.00
2023-10-23T17:09:54.174Z,97710.00
2023-10-23T17:15:16.309Z,97702.00
2023-10-23T17:20:42.301Z,97693.00
2023-10-23T17:26:30.832Z,97698.00
2023-10-23T17:32:22.533Z,97679.00
2023-10-23T17:38:06.513Z,97679.00
2023-10-23T17:43:43.053Z,97680.00
2023-10-23T17:49:15.215Z,97666.00
2023-10-23T17:54:41.461Z,97672.00
2023-10-23T18:00:03.825Z,97670.00
2023-10-23T18:05:44.447Z,97654.00
2023-10-23T18:11:32.756Z,97656.00
2023-10-23T18:17:18.886Z,97650.00
2023-10-23T18:23:05.473Z,97662.00
2023-10-23T18:28:42.945Z,97660.00
2023-10-23T18:34:10.139Z,97651.00
2023-10-23T18:39:33.486Z,97648.00
2023-10-23T18:44:54.965Z,97649.00
2023-10-23T18:50:16.896Z,97635.00
2023-10-23T18:55:38.615Z,97617.00
2023-10-23T19:01:00.172Z,97615.00
2023-10-23T19:06:47.509Z,97602.00
2023-10-23T19:12:11.162Z,97604.00
2023-10-23T19:17:55.642Z,97597.00
2023-10-23T19:23:33.829Z,97587.00
2023-10-23T19:29:03.686Z,97586.00
2023-10-23T19:34:31.960Z,97576.00
2023-10-23T19:39:53.873Z,97594.00
2023-10-23T19:45:15.799Z,97598.00
2023-10-23T19:50:44.474Z,97591.00
2023-10-23T19:56:32.612Z,97584.00
2023-10-23T20:02:27.432Z,97590.00
2023-10-23T20:07:52.917Z,97596.00
2023-10-23T20:13:29.808Z,97588.00
2023-10-23T20:19:02.197Z,97582.00
2023-10-23T20:24:25.235Z,97580.00
2023-10-23T20:29:46.469Z,97570.00
2023-10-23T20:35:08.624Z,97579.00
2023-10-23T20:40:29.942Z,97579.00
2023-10-23T20:46:06.491Z,97573.00
2023-10-23T20:51:55.305Z,97561.00
2023-10-23T20:57:36.461Z,97574.00
2023-10-23T21:03:25.904Z,97572.00
2023-10-23T21:08:56.390Z,97573.00
2023-10-23T21:14:17.826Z,97552.00
2023-10-23T21:19:39.739Z,97533.00
2023-10-23T21:25:01.665Z,97529.00
2023-10-23T21:30:23.616Z,97526.00
2023-10-23T21:35:44.906Z,97528.00
2023-10-23T21:41:34.282Z,97504.00
2023-10-23T21:47:18.160Z,97497.00
2023-10-23T21:53:03.627Z,97491.00
2023-10-23T21:59:07.854Z,97487.00
2023-10-23T22:04:45.578Z,97503.00
2023-10-23T22:16:30.415Z,97512.00
2023-10-23T22:22:05.746Z,97487.00
2023-10-23T22:27:47.758Z,97484.00
2023-10-23T22:33:21.247Z,97464.00
2023-10-23T22:38:53.558Z,97467.00
2023-10-23T22:44:17.766Z,97482.00
2023-10-23T22:49:40.433Z,97460.00
2023-10-23T22:55:05.484Z,97457.00
2023-10-23T23:00:27.377Z,97460.00
2023-10-23T23:06:12.793Z,97468.00
2023-10-23T23:11:43.283Z,97480.00
2023-10-23T23:17:41.517Z,97481.00
2023-10-23T23:23:19.802Z,97466.00
2023-10-23T23:29:00.801Z,97462.00
2023-10-23T23:34:24.032Z,97440.00
2023-10-23T23:39:45.665Z,97451.00
2023-10-23T23:45:07.609Z,97435.00
2023-10-23T23:50:32.417Z,97426.00
2023-10-23T23:56:06.800Z,97400.00
